Orenge 7 — JL6148 — position and weather

sailwx.info

Track history (hours):
 
Tides and Currents Weather Stations Pressure Air Temp Water Temp Dewpoint Dewpoint Depression Visibility Wind Speed Wind Dir Waves Ship Positions

Orenge 7

Last reported at 2015-Mar-02 20:33 UTC. Time now 2015-Mar-02 20:36 UTC.
Position N 34°36' E 135°20'.

Length 163 m; draft 4.9 m.

Type: Passenger vessel. MMSI: 431500186.

Date/timePositionNaut miles runAvg speedWind from/ knotsBaromVisibWave heightAir tempDewpointWater temp
2015-Mar-02 20:33N 34°36' E 135°20'1716.6
2015-Mar-02 19:33N 34°37' E 134°60'0 0.0
2015-Mar-01 14:33N 34°38' E 134°59'1817.6
2015-Mar-01 13:34N 34°37' E 135°21'4 4.2
2015-Mar-01 12:33N 34°37' E 135°26'0 0.0
2015-Mar-01 11:33N 34°37' E 135°26'0 0.0
2015-Mar-01 10:33N 34°37' E 135°26'0 0.0
2015-Mar-01 09:33N 34°37' E 135°26'0 0.0
2015-Mar-01 08:33N 34°37' E 135°26'0 0.0
2015-Mar-01 07:27N 34°37' E 135°26'0 0.0
2015-Mar-01 06:33N 34°37' E 135°26'0 0.0
2015-Mar-01 05:33N 34°37' E 135°26'0 0.0
2015-Mar-01 04:33N 34°37' E 135°26'0 0.0
2015-Mar-01 03:33N 34°37' E 135°26'0 0.0
2015-Mar-01 02:15N 34°37' E 135°26'0 0.0
2015-Mar-01 01:27N 34°37' E 135°26'0 0.0
2015-Mar-01 00:33N 34°37' E 135°26'0 0.0
2015-Feb-28 23:33N 34°37' E 135°26'0 0.0
2015-Feb-28 22:33N 34°37' E 135°26'0 0.0
2015-Feb-28 21:33N 34°37' E 135°26'5 5.3
2015-Feb-28 20:33N 34°36' E 135°20'1817.6
2015-Feb-28 19:33N 34°37' E 134°58'1 0.0
2015-Feb-27 14:33N 34°37' E 134°58'1717.1
2015-Feb-27 13:33N 34°36' E 135°18'6 6.2
2015-Feb-27 12:33N 34°37' E 135°26'0 0.0
2015-Feb-27 11:33N 34°37' E 135°26'0 0.0
2015-Feb-27 10:33N 34°37' E 135°26'0 0.0
2015-Feb-27 09:33N 34°37' E 135°26'0 0.0
2015-Feb-27 08:33N 34°37' E 135°26'0 0.0
2015-Feb-27 07:27N 34°37' E 135°26'0 0.0
2015-Feb-27 06:33N 34°37' E 135°26'0 0.0
2015-Feb-27 05:33N 34°37' E 135°26'0 0.0
2015-Feb-27 04:33N 34°37' E 135°26'0 0.0
2015-Feb-27 03:33N 34°37' E 135°26'0 0.0
2015-Feb-27 02:33N 34°37' E 135°26'0 0.0
2015-Feb-27 01:33N 34°37' E 135°26'0 0.0
2015-Feb-27 00:21N 34°37' E 135°26'0 0.0
2015-Feb-26 23:33N 34°37' E 135°26'0 0.0
2015-Feb-26 22:33N 34°37' E 135°26'0 0.0
2015-Feb-26 21:27N 34°37' E 135°26'5 5.6
2015-Feb-26 20:33N 34°36' E 135°20'1818.3
2015-Feb-26 19:34N 34°37' E 134°58'1 0.0
2015-Feb-25 14:33N 34°37' E 134°56'1818.2
2015-Feb-25 13:33N 34°37' E 135°18'6 6.1
2015-Feb-25 12:31N 34°37' E 135°26'0 0.0
2015-Feb-25 11:31N 34°37' E 135°26'0 0.0
2015-Feb-25 10:25N 34°37' E 135°26'0 0.0
2015-Feb-25 09:31N 34°37' E 135°26'0 0.0
2015-Feb-25 08:31N 34°37' E 135°26'0 0.0
2015-Feb-25 07:31N 34°37' E 135°26'0 0.0
2015-Feb-25 06:19N 34°37' E 135°26'0 0.0
2015-Feb-25 05:31N 34°37' E 135°26'0 0.0
2015-Feb-25 04:31N 34°37' E 135°26'0 0.0
2015-Feb-25 03:25N 34°37' E 135°26'0 0.0
2015-Feb-25 02:31N 34°37' E 135°26'0 0.0
2015-Feb-25 01:19N 34°37' E 135°26'0 0.0
2015-Feb-25 00:25N 34°37' E 135°26'0 0.0
2015-Feb-24 23:31N 34°37' E 135°26'0 0.0
2015-Feb-24 22:31N 34°37' E 135°26'0 0.0
2015-Feb-24 21:31N 34°37' E 135°26'5 5.6
2015-Feb-24 20:33N 34°36' E 135°19'1818.6
2015-Feb-24 19:33N 34°36' E 134°57'1 0.0
2015-Feb-23 14:33N 34°36' E 134°56'1919.0
2015-Feb-23 13:33N 34°37' E 135°19'6 5.5
2015-Feb-23 12:28N 34°37' E 135°26'0 0.0
2015-Feb-23 11:34N 34°37' E 135°26'0 0.0
2015-Feb-23 10:28N 34°37' E 135°26'0 0.0
2015-Feb-23 09:28N 34°37' E 135°26'0 0.0
2015-Feb-23 08:28N 34°37' E 135°26'0 0.0
2015-Feb-23 07:34N 34°37' E 135°26'0 0.0
2015-Feb-23 06:28N 34°37' E 135°26'0 0.0
2015-Feb-23 05:28N 34°37' E 135°26'0 0.0
2015-Feb-23 04:16N 34°37' E 135°26'0 0.0
2015-Feb-23 03:34N 34°37' E 135°26'0 0.0
2015-Feb-23 01:34N 34°37' E 135°26'0 0.0
2015-Feb-23 00:22N 34°37' E 135°26'0 0.0
2015-Feb-22 21:07N 34°37' E 135°26'5 9.2
2015-Feb-22 20:33N 34°36' E 135°20'1717.5
2015-Feb-22 19:33N 34°37' E 134°58'4 0.1
2015-Feb-21 14:33N 34°36' E 134°54'2020.2
2015-Feb-21 13:33N 34°36' E 135°18'6 2.0
2015-Feb-21 10:25N 34°37' E 135°26'0 0.0
2015-Feb-21 09:31N 34°37' E 135°26'0 0.0
2015-Feb-21 08:31N 34°37' E 135°26'0 0.0
2015-Feb-21 07:25N 34°37' E 135°26'0 0.0
2015-Feb-21 06:31N 34°37' E 135°26'0 0.0
2015-Feb-21 05:31N 34°37' E 135°26'0 0.0
2015-Feb-21 04:31N 34°37' E 135°26'0 0.0
2015-Feb-21 02:13N 34°37' E 135°26'0 0.0
2015-Feb-21 00:25N 34°37' E 135°26'0 0.0
2015-Feb-20 21:10N 34°37' E 135°26'  
Track history (hours):
 
Tides and Currents Weather Stations Pressure Air Temp Water Temp Dewpoint Dewpoint Depression Visibility Wind Speed Wind Dir Waves Ship Positions

Orenge 7

Last reported at 2015-Mar-02 20:33 UTC. Time now 2015-Mar-02 20:36 UTC.
Position N 34°36' E 135°20'.

Length 163 m; draft 4.9 m.

Type: Passenger vessel. MMSI: 431500186.

Date/timePositionNaut miles runAvg speedWind from/ knotsBaromVisibWave heightAir tempDewpointWater temp
2015-Mar-02 20:33N 34°36' E 135°20'1716.6
2015-Mar-02 19:33N 34°37' E 134°60'0 0.0
2015-Mar-01 14:33N 34°38' E 134°59'1817.6
2015-Mar-01 13:34N 34°37' E 135°21'4 4.2
2015-Mar-01 12:33N 34°37' E 135°26'0 0.0
2015-Mar-01 11:33N 34°37' E 135°26'0 0.0
2015-Mar-01 10:33N 34°37' E 135°26'0 0.0
2015-Mar-01 09:33N 34°37' E 135°26'0 0.0
2015-Mar-01 08:33N 34°37' E 135°26'0 0.0
2015-Mar-01 07:27N 34°37' E 135°26'0 0.0
2015-Mar-01 06:33N 34°37' E 135°26'0 0.0
2015-Mar-01 05:33N 34°37' E 135°26'0 0.0
2015-Mar-01 04:33N 34°37' E 135°26'0 0.0
2015-Mar-01 03:33N 34°37' E 135°26'0 0.0
2015-Mar-01 02:15N 34°37' E 135°26'0 0.0
2015-Mar-01 01:27N 34°37' E 135°26'0 0.0
2015-Mar-01 00:33N 34°37' E 135°26'0 0.0
2015-Feb-28 23:33N 34°37' E 135°26'0 0.0
2015-Feb-28 22:33N 34°37' E 135°26'0 0.0
2015-Feb-28 21:33N 34°37' E 135°26'5 5.3
2015-Feb-28 20:33N 34°36' E 135°20'1817.6
2015-Feb-28 19:33N 34°37' E 134°58'1 0.0
2015-Feb-27 14:33N 34°37' E 134°58'1717.1
2015-Feb-27 13:33N 34°36' E 135°18'6 6.2
2015-Feb-27 12:33N 34°37' E 135°26'0 0.0
2015-Feb-27 11:33N 34°37' E 135°26'0 0.0
2015-Feb-27 10:33N 34°37' E 135°26'0 0.0
2015-Feb-27 09:33N 34°37' E 135°26'0 0.0
2015-Feb-27 08:33N 34°37' E 135°26'0 0.0
2015-Feb-27 07:27N 34°37' E 135°26'0 0.0
2015-Feb-27 06:33N 34°37' E 135°26'0 0.0
2015-Feb-27 05:33N 34°37' E 135°26'0 0.0
2015-Feb-27 04:33N 34°37' E 135°26'0 0.0
2015-Feb-27 03:33N 34°37' E 135°26'0 0.0
2015-Feb-27 02:33N 34°37' E 135°26'0 0.0
2015-Feb-27 01:33N 34°37' E 135°26'0 0.0
2015-Feb-27 00:21N 34°37' E 135°26'0 0.0
2015-Feb-26 23:33N 34°37' E 135°26'0 0.0
2015-Feb-26 22:33N 34°37' E 135°26'0 0.0
2015-Feb-26 21:27N 34°37' E 135°26'5 5.6
2015-Feb-26 20:33N 34°36' E 135°20'1818.3
2015-Feb-26 19:34N 34°37' E 134°58'1 0.0
2015-Feb-25 14:33N 34°37' E 134°56'1818.2
2015-Feb-25 13:33N 34°37' E 135°18'6 6.1
2015-Feb-25 12:31N 34°37' E 135°26'0 0.0
2015-Feb-25 11:31N 34°37' E 135°26'0 0.0
2015-Feb-25 10:25N 34°37' E 135°26'0 0.0
2015-Feb-25 09:31N 34°37' E 135°26'0 0.0
2015-Feb-25 08:31N 34°37' E 135°26'0 0.0
2015-Feb-25 07:31N 34°37' E 135°26'0 0.0
2015-Feb-25 06:19N 34°37' E 135°26'0 0.0
2015-Feb-25 05:31N 34°37' E 135°26'0 0.0
2015-Feb-25 04:31N 34°37' E 135°26'0 0.0
2015-Feb-25 03:25N 34°37' E 135°26'0 0.0
2015-Feb-25 02:31N 34°37' E 135°26'0 0.0
2015-Feb-25 01:19N 34°37' E 135°26'0 0.0
2015-Feb-25 00:25N 34°37' E 135°26'0 0.0
2015-Feb-24 23:31N 34°37' E 135°26'0 0.0
2015-Feb-24 22:31N 34°37' E 135°26'0 0.0
2015-Feb-24 21:31N 34°37' E 135°26'5 5.6
2015-Feb-24 20:33N 34°36' E 135°19'1818.6
2015-Feb-24 19:33N 34°36' E 134°57'1 0.0
2015-Feb-23 14:33N 34°36' E 134°56'1919.0
2015-Feb-23 13:33N 34°37' E 135°19'6 5.5
2015-Feb-23 12:28N 34°37' E 135°26'0 0.0
2015-Feb-23 11:34N 34°37' E 135°26'0 0.0
2015-Feb-23 10:28N 34°37' E 135°26'0 0.0
2015-Feb-23 09:28N 34°37' E 135°26'0 0.0
2015-Feb-23 08:28N 34°37' E 135°26'0 0.0
2015-Feb-23 07:34N 34°37' E 135°26'0 0.0
2015-Feb-23 06:28N 34°37' E 135°26'0 0.0
2015-Feb-23 05:28N 34°37' E 135°26'0 0.0
2015-Feb-23 04:16N 34°37' E 135°26'0 0.0
2015-Feb-23 03:34N 34°37' E 135°26'0 0.0
2015-Feb-23 01:34N 34°37' E 135°26'0 0.0
2015-Feb-23 00:22N 34°37' E 135°26'0 0.0
2015-Feb-22 21:07N 34°37' E 135°26'5 9.2
2015-Feb-22 20:33N 34°36' E 135°20'1717.5
2015-Feb-22 19:33N 34°37' E 134°58'4 0.1
2015-Feb-21 14:33N 34°36' E 134°54'2020.2
2015-Feb-21 13:33N 34°36' E 135°18'6 2.0
2015-Feb-21 10:25N 34°37' E 135°26'0 0.0
2015-Feb-21 09:31N 34°37' E 135°26'0 0.0
2015-Feb-21 08:31N 34°37' E 135°26'0 0.0
2015-Feb-21 07:25N 34°37' E 135°26'0 0.0
2015-Feb-21 06:31N 34°37' E 135°26'0 0.0
2015-Feb-21 05:31N 34°37' E 135°26'0 0.0
2015-Feb-21 04:31N 34°37' E 135°26'0 0.0
2015-Feb-21 02:13N 34°37' E 135°26'0 0.0
2015-Feb-21 00:25N 34°37' E 135°26'0 0.0
2015-Feb-20 21:10N 34°37' E 135°26'  

Dump ship's entire track history